sensor_id;sensor_type;location;lat;lon;timestamp;P1;durP1;ratioP1;P2;durP2;ratioP2
438;SDS011;206;48.782;9.252;2023-04-12T00:01:41;5.77;;;4.33;;
438;SDS011;206;48.782;9.252;2023-04-12T00:04:06;7.27;;;3.63;;
438;SDS011;206;48.782;9.252;2023-04-12T00:06:32;4.90;;;3.63;;
438;SDS011;206;48.782;9.252;2023-04-12T00:08:58;7.23;;;4.67;;
438;SDS011;206;48.782;9.252;2023-04-12T00:11:24;6.67;;;3.60;;
438;SDS011;206;48.782;9.252;2023-04-12T00:13:51;5.33;;;3.87;;
438;SDS011;206;48.782;9.252;2023-04-12T00:16:17;5.03;;;3.10;;
438;SDS011;206;48.782;9.252;2023-04-12T00:18:42;5.93;;;3.47;;
438;SDS011;206;48.782;9.252;2023-04-12T00:21:10;6.00;;;2.97;;
438;SDS011;206;48.782;9.252;2023-04-12T00:23:35;7.10;;;3.23;;
438;SDS011;206;48.782;9.252;2023-04-12T00:26:04;6.90;;;3.83;;
438;SDS011;206;48.782;9.252;2023-04-12T00:28:29;6.00;;;3.50;;
438;SDS011;206;48.782;9.252;2023-04-12T00:30:55;9.67;;;3.13;;
438;SDS011;206;48.782;9.252;2023-04-12T00:33:21;5.23;;;3.70;;
438;SDS011;206;48.782;9.252;2023-04-12T00:35:46;5.73;;;3.50;;
438;SDS011;206;48.782;9.252;2023-04-12T00:38:12;4.60;;;2.83;;
438;SDS011;206;48.782;9.252;2023-04-12T00:40:39;4.47;;;2.57;;
438;SDS011;206;48.782;9.252;2023-04-12T00:43:06;6.03;;;2.10;;
438;SDS011;206;48.782;9.252;2023-04-12T00:45:32;3.27;;;2.67;;
438;SDS011;206;48.782;9.252;2023-04-12T00:47:58;5.37;;;2.53;;
438;SDS011;206;48.782;9.252;2023-04-12T00:50:24;8.03;;;2.13;;
438;SDS011;206;48.782;9.252;2023-04-12T00:52:50;3.00;;;1.90;;
438;SDS011;206;48.782;9.252;2023-04-12T00:55:17;8.07;;;2.07;;
438;SDS011;206;48.782;9.252;2023-04-12T00:57:43;2.97;;;2.20;;
438;SDS011;206;48.782;9.252;2023-04-12T01:00:09;4.60;;;1.80;;
438;SDS011;206;48.782;9.252;2023-04-12T01:02:36;5.97;;;2.57;;
438;SDS011;206;48.782;9.252;2023-04-12T01:05:03;6.13;;;1.83;;
438;SDS011;206;48.782;9.252;2023-04-12T01:07:44;5.17;;;1.50;;
438;SDS011;206;48.782;9.252;2023-04-12T01:15:57;4.60;;;1.70;;
438;SDS011;206;48.782;9.252;2023-04-12T01:18:37;5.60;;;1.80;;
438;SDS011;206;48.782;9.252;2023-04-12T01:21:07;4.43;;;2.57;;
438;SDS011;206;48.782;9.252;2023-04-12T01:23:47;4.30;;;2.10;;
438;SDS011;206;48.782;9.252;2023-04-12T01:28:45;4.53;;;2.13;;
438;SDS011;206;48.782;9.252;2023-04-12T01:31:14;2.60;;;2.10;;
438;SDS011;206;48.782;9.252;2023-04-12T01:33:42;3.30;;;2.03;;
438;SDS011;206;48.782;9.252;2023-04-12T01:36:11;6.10;;;2.90;;
438;SDS011;206;48.782;9.252;2023-04-12T01:38:42;7.20;;;2.90;;
438;SDS011;206;48.782;9.252;2023-04-12T01:41:08;5.10;;;2.20;;
438;SDS011;206;48.782;9.252;2023-04-12T01:43:44;8.90;;;2.40;;
438;SDS011;206;48.782;9.252;2023-04-12T01:46:11;3.63;;;2.40;;
438;SDS011;206;48.782;9.252;2023-04-12T01:48:38;4.60;;;2.10;;
438;SDS011;206;48.782;9.252;2023-04-12T01:54:26;6.20;;;1.93;;
438;SDS011;206;48.782;9.252;2023-04-12T01:56:58;4.17;;;1.83;;
438;SDS011;206;48.782;9.252;2023-04-12T01:59:27;7.20;;;2.70;;
438;SDS011;206;48.782;9.252;2023-04-12T02:01:56;5.87;;;2.30;;
438;SDS011;206;48.782;9.252;2023-04-12T02:04:22;6.97;;;2.50;;
438;SDS011;206;48.782;9.252;2023-04-12T02:06:51;4.67;;;2.30;;
438;SDS011;206;48.782;9.252;2023-04-12T02:09:17;5.10;;;2.90;;
438;SDS011;206;48.782;9.252;2023-04-12T02:11:46;4.70;;;2.53;;
438;SDS011;206;48.782;9.252;2023-04-12T02:14:15;5.63;;;2.40;;
438;SDS011;206;48.782;9.252;2023-04-12T02:16:41;6.90;;;2.63;;
438;SDS011;206;48.782;9.252;2023-04-12T02:19:08;3.37;;;2.13;;
438;SDS011;206;48.782;9.252;2023-04-12T02:21:41;1.73;;;1.67;;
438;SDS011;206;48.782;9.252;2023-04-12T02:24:08;5.20;;;1.83;;
438;SDS011;206;48.782;9.252;2023-04-12T02:26:35;3.70;;;2.93;;
438;SDS011;206;48.782;9.252;2023-04-12T02:29:01;5.63;;;2.57;;
438;SDS011;206;48.782;9.252;2023-04-12T02:31:27;7.00;;;3.27;;
438;SDS011;206;48.782;9.252;2023-04-12T02:33:54;4.27;;;3.07;;
438;SDS011;206;48.782;9.252;2023-04-12T02:36:20;3.67;;;2.13;;
438;SDS011;206;48.782;9.252;2023-04-12T02:38:46;3.83;;;2.60;;
438;SDS011;206;48.782;9.252;2023-04-12T02:41:18;3.83;;;2.80;;
438;SDS011;206;48.782;9.252;2023-04-12T02:43:44;7.70;;;2.73;;
438;SDS011;206;48.782;9.252;2023-04-12T02:46:14;4.10;;;2.60;;
438;SDS011;206;48.782;9.252;2023-04-12T02:48:43;5.33;;;3.17;;
438;SDS011;206;48.782;9.252;2023-04-12T02:51:09;8.53;;;2.57;;
438;SDS011;206;48.782;9.252;2023-04-12T02:53:35;10.17;;;2.70;;
438;SDS011;206;48.782;9.252;2023-04-12T02:56:02;3.10;;;2.10;;
438;SDS011;206;48.782;9.252;2023-04-12T02:58:29;6.50;;;2.60;;
438;SDS011;206;48.782;9.252;2023-04-12T03:00:54;5.70;;;2.70;;
438;SDS011;206;48.782;9.252;2023-04-12T03:03:21;4.23;;;2.73;;
438;SDS011;206;48.782;9.252;2023-04-12T03:05:47;3.60;;;2.23;;
438;SDS011;206;48.782;9.252;2023-04-12T03:08:13;6.70;;;3.10;;
438;SDS011;206;48.782;9.252;2023-04-12T03:10:39;5.80;;;2.40;;
438;SDS011;206;48.782;9.252;2023-04-12T03:13:04;6.17;;;3.57;;
438;SDS011;206;48.782;9.252;2023-04-12T03:15:30;3.07;;;2.50;;
438;SDS011;206;48.782;9.252;2023-04-12T03:17:56;3.63;;;2.60;;
438;SDS011;206;48.782;9.252;2023-04-12T03:20:21;4.50;;;2.67;;
438;SDS011;206;48.782;9.252;2023-04-12T03:22:49;5.70;;;3.00;;
438;SDS011;206;48.782;9.252;2023-04-12T03:25:15;2.47;;;2.30;;
438;SDS011;206;48.782;9.252;2023-04-12T03:27:44;6.33;;;3.53;;
438;SDS011;206;48.782;9.252;2023-04-12T03:30:10;6.10;;;2.60;;
438;SDS011;206;48.782;9.252;2023-04-12T03:32:36;2.43;;;2.20;;
438;SDS011;206;48.782;9.252;2023-04-12T03:35:06;8.83;;;3.70;;
438;SDS011;206;48.782;9.252;2023-04-12T03:37:33;3.40;;;2.47;;
438;SDS011;206;48.782;9.252;2023-04-12T03:39:58;3.63;;;2.17;;
438;SDS011;206;48.782;9.252;2023-04-12T03:42:24;2.70;;;2.27;;
438;SDS011;206;48.782;9.252;2023-04-12T03:44:51;4.20;;;3.93;;
438;SDS011;206;48.782;9.252;2023-04-12T03:47:18;3.93;;;2.77;;
438;SDS011;206;48.782;9.252;2023-04-12T03:49:45;7.03;;;2.80;;
438;SDS011;206;48.782;9.252;2023-04-12T03:52:11;4.63;;;2.83;;
438;SDS011;206;48.782;9.252;2023-04-12T03:54:37;4.10;;;2.70;;
438;SDS011;206;48.782;9.252;2023-04-12T03:57:02;4.17;;;3.10;;
438;SDS011;206;48.782;9.252;2023-04-12T03:59:28;5.17;;;3.63;;
438;SDS011;206;48.782;9.252;2023-04-12T04:01:55;8.23;;;3.43;;
438;SDS011;206;48.782;9.252;2023-04-12T04:04:21;8.17;;;3.53;;
438;SDS011;206;48.782;9.252;2023-04-12T04:06:47;4.33;;;3.03;;
438;SDS011;206;48.782;9.252;2023-04-12T04:09:13;4.93;;;2.30;;
438;SDS011;206;48.782;9.252;2023-04-12T04:11:39;3.90;;;3.07;;
438;SDS011;206;48.782;9.252;2023-04-12T04:14:04;6.97;;;2.20;;
438;SDS011;206;48.782;9.252;2023-04-12T04:16:30;7.20;;;2.33;;
438;SDS011;206;48.782;9.252;2023-04-12T04:18:56;2.40;;;1.70;;
438;SDS011;206;48.782;9.252;2023-04-12T04:21:21;4.80;;;2.23;;
438;SDS011;206;48.782;9.252;2023-04-12T04:23:47;2.50;;;1.87;;
438;SDS011;206;48.782;9.252;2023-04-12T04:26:16;2.30;;;2.07;;
438;SDS011;206;48.782;9.252;2023-04-12T04:28:43;5.70;;;2.17;;
438;SDS011;206;48.782;9.252;2023-04-12T04:31:11;1.80;;;1.77;;
438;SDS011;206;48.782;9.252;2023-04-12T04:33:37;2.17;;;2.00;;
438;SDS011;206;48.782;9.252;2023-04-12T04:36:04;1.70;;;1.60;;
438;SDS011;206;48.782;9.252;2023-04-12T04:38:33;4.03;;;2.67;;
438;SDS011;206;48.782;9.252;2023-04-12T04:41:00;2.67;;;2.00;;
438;SDS011;206;48.782;9.252;2023-04-12T04:43:29;3.80;;;2.10;;
438;SDS011;206;48.782;9.252;2023-04-12T04:45:56;3.03;;;1.90;;
438;SDS011;206;48.782;9.252;2023-04-12T04:48:22;4.17;;;2.73;;
438;SDS011;206;48.782;9.252;2023-04-12T04:50:48;3.17;;;2.27;;
438;SDS011;206;48.782;9.252;2023-04-12T04:53:17;6.73;;;1.70;;
438;SDS011;206;48.782;9.252;2023-04-12T04:55:45;3.00;;;2.47;;
438;SDS011;206;48.782;9.252;2023-04-12T04:58:11;2.80;;;2.40;;
438;SDS011;206;48.782;9.252;2023-04-12T05:00:38;6.50;;;2.33;;
438;SDS011;206;48.782;9.252;2023-04-12T05:03:03;1.97;;;1.80;;
438;SDS011;206;48.782;9.252;2023-04-12T05:05:29;4.50;;;1.77;;
438;SDS011;206;48.782;9.252;2023-04-12T05:07:55;2.87;;;2.67;;
438;SDS011;206;48.782;9.252;2023-04-12T05:10:22;4.07;;;2.50;;
438;SDS011;206;48.782;9.252;2023-04-12T05:12:47;1.97;;;1.90;;
438;SDS011;206;48.782;9.252;2023-04-12T05:15:13;3.37;;;2.40;;
438;SDS011;206;48.782;9.252;2023-04-12T05:17:39;6.33;;;3.53;;
438;SDS011;206;48.782;9.252;2023-04-12T05:20:05;4.40;;;2.10;;
438;SDS011;206;48.782;9.252;2023-04-12T05:22:32;2.17;;;1.80;;
438;SDS011;206;48.782;9.252;2023-04-12T05:24:58;4.27;;;2.03;;
438;SDS011;206;48.782;9.252;2023-04-12T05:27:25;5.43;;;2.77;;
438;SDS011;206;48.782;9.252;2023-04-12T05:29:51;3.73;;;2.30;;
438;SDS011;206;48.782;9.252;2023-04-12T05:32:20;4.63;;;2.47;;
438;SDS011;206;48.782;9.252;2023-04-12T05:34:46;4.40;;;2.07;;
438;SDS011;206;48.782;9.252;2023-04-12T05:37:11;5.50;;;2.20;;
438;SDS011;206;48.782;9.252;2023-04-12T05:39:37;3.17;;;2.20;;
438;SDS011;206;48.782;9.252;2023-04-12T05:42:03;4.27;;;2.57;;
438;SDS011;206;48.782;9.252;2023-04-12T05:44:29;4.20;;;3.67;;
438;SDS011;206;48.782;9.252;2023-04-12T05:46:54;3.87;;;3.30;;
438;SDS011;206;48.782;9.252;2023-04-12T05:49:20;7.53;;;3.27;;
438;SDS011;206;48.782;9.252;2023-04-12T05:51:45;5.50;;;3.07;;
438;SDS011;206;48.782;9.252;2023-04-12T05:54:11;3.70;;;2.80;;
438;SDS011;206;48.782;9.252;2023-04-12T05:56:37;3.00;;;2.57;;
438;SDS011;206;48.782;9.252;2023-04-12T05:59:03;3.60;;;2.30;;
438;SDS011;206;48.782;9.252;2023-04-12T06:01:29;3.17;;;2.43;;
438;SDS011;206;48.782;9.252;2023-04-12T06:03:57;3.50;;;2.80;;
438;SDS011;206;48.782;9.252;2023-04-12T06:06:23;1.80;;;1.80;;
438;SDS011;206;48.782;9.252;2023-04-12T06:08:48;2.30;;;2.17;;
438;SDS011;206;48.782;9.252;2023-04-12T06:11:14;3.80;;;2.10;;
438;SDS011;206;48.782;9.252;2023-04-12T06:13:40;4.50;;;1.83;;
438;SDS011;206;48.782;9.252;2023-04-12T06:16:05;3.00;;;2.03;;
438;SDS011;206;48.782;9.252;2023-04-12T06:18:31;8.33;;;2.60;;
438;SDS011;206;48.782;9.252;2023-04-12T06:20:57;2.80;;;1.70;;
438;SDS011;206;48.782;9.252;2023-04-12T06:23:23;1.90;;;1.43;;
438;SDS011;206;48.782;9.252;2023-04-12T06:25:48;1.90;;;1.53;;
438;SDS011;206;48.782;9.252;2023-04-12T06:28:14;2.13;;;1.90;;
438;SDS011;206;48.782;9.252;2023-04-12T06:30:40;5.67;;;2.40;;
438;SDS011;206;48.782;9.252;2023-04-12T06:33:06;23.13;;;7.37;;
438;SDS011;206;48.782;9.252;2023-04-12T06:35:32;4.83;;;1.90;;
438;SDS011;206;48.782;9.252;2023-04-12T06:37:58;4.30;;;1.87;;
438;SDS011;206;48.782;9.252;2023-04-12T06:40:23;2.60;;;1.57;;
438;SDS011;206;48.782;9.252;2023-04-12T06:42:49;3.03;;;1.20;;
438;SDS011;206;48.782;9.252;2023-04-12T06:45:15;2.63;;;1.60;;
438;SDS011;206;48.782;9.252;2023-04-12T06:47:41;3.80;;;1.70;;
438;SDS011;206;48.782;9.252;2023-04-12T06:50:06;3.13;;;1.80;;
438;SDS011;206;48.782;9.252;2023-04-12T06:52:32;5.20;;;2.80;;
438;SDS011;206;48.782;9.252;2023-04-12T06:54:58;4.13;;;2.60;;
438;SDS011;206;48.782;9.252;2023-04-12T06:57:23;3.23;;;2.10;;
438;SDS011;206;48.782;9.252;2023-04-12T06:59:50;3.00;;;2.40;;
438;SDS011;206;48.782;9.252;2023-04-12T07:02:15;2.50;;;2.33;;
438;SDS011;206;48.782;9.252;2023-04-12T07:04:41;4.03;;;2.10;;
438;SDS011;206;48.782;9.252;2023-04-12T07:07:06;3.80;;;1.87;;
438;SDS011;206;48.782;9.252;2023-04-12T07:09:34;5.17;;;2.90;;
438;SDS011;206;48.782;9.252;2023-04-12T07:11:59;3.13;;;2.00;;
438;SDS011;206;48.782;9.252;2023-04-12T07:14:26;2.07;;;1.90;;
438;SDS011;206;48.782;9.252;2023-04-12T07:16:52;3.70;;;2.30;;
438;SDS011;206;48.782;9.252;2023-04-12T07:19:17;3.37;;;2.13;;
438;SDS011;206;48.782;9.252;2023-04-12T07:21:43;2.63;;;1.93;;
438;SDS011;206;48.782;9.252;2023-04-12T07:24:08;1.67;;;1.40;;
438;SDS011;206;48.782;9.252;2023-04-12T07:26:35;2.77;;;1.70;;
438;SDS011;206;48.782;9.252;2023-04-12T07:29:00;3.47;;;1.50;;
438;SDS011;206;48.782;9.252;2023-04-12T07:31:26;2.33;;;1.50;;
438;SDS011;206;48.782;9.252;2023-04-12T07:33:54;3.40;;;2.37;;
438;SDS011;206;48.782;9.252;2023-04-12T07:36:20;1.70;;;1.47;;
438;SDS011;206;48.782;9.252;2023-04-12T07:38:46;3.10;;;1.73;;
438;SDS011;206;48.782;9.252;2023-04-12T07:41:12;2.20;;;1.80;;
438;SDS011;206;48.782;9.252;2023-04-12T07:43:38;2.60;;;1.93;;
438;SDS011;206;48.782;9.252;2023-04-12T07:46:03;7.10;;;2.00;;
438;SDS011;206;48.782;9.252;2023-04-12T07:48:32;5.00;;;1.73;;
438;SDS011;206;48.782;9.252;2023-04-12T07:50:58;3.57;;;1.27;;
438;SDS011;206;48.782;9.252;2023-04-12T07:53:25;4.10;;;1.60;;
438;SDS011;206;48.782;9.252;2023-04-12T07:55:52;2.17;;;1.30;;
438;SDS011;206;48.782;9.252;2023-04-12T07:58:20;4.70;;;2.13;;
438;SDS011;206;48.782;9.252;2023-04-12T08:00:46;2.40;;;1.60;;
438;SDS011;206;48.782;9.252;2023-04-12T08:03:13;3.33;;;1.90;;
438;SDS011;206;48.782;9.252;2023-04-12T08:05:39;1.43;;;1.33;;
438;SDS011;206;48.782;9.252;2023-04-12T08:08:06;3.23;;;1.73;;
438;SDS011;206;48.782;9.252;2023-04-12T08:10:34;3.10;;;1.97;;
438;SDS011;206;48.782;9.252;2023-04-12T08:13:00;3.03;;;1.80;;
438;SDS011;206;48.782;9.252;2023-04-12T08:15:26;5.90;;;1.67;;
438;SDS011;206;48.782;9.252;2023-04-12T08:17:52;3.90;;;2.40;;
438;SDS011;206;48.782;9.252;2023-04-12T08:20:17;2.40;;;1.87;;
438;SDS011;206;48.782;9.252;2023-04-12T08:22:43;2.30;;;1.93;;
438;SDS011;206;48.782;9.252;2023-04-12T08:25:10;3.50;;;1.87;;
438;SDS011;206;48.782;9.252;2023-04-12T08:27:38;2.83;;;1.77;;
438;SDS011;206;48.782;9.252;2023-04-12T08:30:05;2.87;;;2.40;;
438;SDS011;206;48.782;9.252;2023-04-12T08:32:32;1.60;;;1.30;;
438;SDS011;206;48.782;9.252;2023-04-12T08:34:58;2.80;;;2.50;;
438;SDS011;206;48.782;9.252;2023-04-12T08:37:24;3.83;;;2.20;;
438;SDS011;206;48.782;9.252;2023-04-12T08:39:50;4.97;;;2.20;;
438;SDS011;206;48.782;9.252;2023-04-12T08:42:15;2.10;;;1.70;;
438;SDS011;206;48.782;9.252;2023-04-12T08:44:41;3.53;;;1.63;;
438;SDS011;206;48.782;9.252;2023-04-12T08:47:08;4.30;;;1.70;;
438;SDS011;206;48.782;9.252;2023-04-12T08:49:35;6.90;;;2.27;;
438;SDS011;206;48.782;9.252;2023-04-12T08:52:02;3.00;;;2.23;;
438;SDS011;206;48.782;9.252;2023-04-12T08:54:33;5.37;;;3.70;;
438;SDS011;206;48.782;9.252;2023-04-12T08:57:00;3.60;;;2.70;;
438;SDS011;206;48.782;9.252;2023-04-12T08:59:27;5.97;;;2.60;;
438;SDS011;206;48.782;9.252;2023-04-12T09:01:54;7.80;;;2.60;;
438;SDS011;206;48.782;9.252;2023-04-12T09:04:21;4.20;;;2.13;;
438;SDS011;206;48.782;9.252;2023-04-12T09:06:46;2.30;;;1.90;;
438;SDS011;206;48.782;9.252;2023-04-12T09:09:12;4.23;;;2.40;;
438;SDS011;206;48.782;9.252;2023-04-12T09:11:38;2.87;;;1.80;;
438;SDS011;206;48.782;9.252;2023-04-12T09:14:17;6.33;;;1.97;;
438;SDS011;206;48.782;9.252;2023-04-12T09:16:48;4.17;;;2.63;;
438;SDS011;206;48.782;9.252;2023-04-12T09:19:14;6.07;;;3.00;;
438;SDS011;206;48.782;9.252;2023-04-12T09:21:52;5.17;;;3.40;;
438;SDS011;206;48.782;9.252;2023-04-12T09:24:19;2.67;;;2.50;;
438;SDS011;206;48.782;9.252;2023-04-12T09:26:48;3.70;;;3.00;;
438;SDS011;206;48.782;9.252;2023-04-12T09:29:25;6.00;;;4.13;;
438;SDS011;206;48.782;9.252;2023-04-12T09:32:01;3.50;;;2.50;;
438;SDS011;206;48.782;9.252;2023-04-12T09:34:30;6.27;;;2.80;;
438;SDS011;206;48.782;9.252;2023-04-12T09:36:57;3.50;;;2.13;;
438;SDS011;206;48.782;9.252;2023-04-12T09:39:33;3.17;;;1.90;;
438;SDS011;206;48.782;9.252;2023-04-12T09:42:05;2.50;;;1.87;;
438;SDS011;206;48.782;9.252;2023-04-12T09:44:35;2.40;;;2.00;;
438;SDS011;206;48.782;9.252;2023-04-12T09:47:01;3.10;;;2.10;;
438;SDS011;206;48.782;9.252;2023-04-12T09:49:35;3.40;;;2.40;;
438;SDS011;206;48.782;9.252;2023-04-12T09:52:02;2.03;;;1.93;;
438;SDS011;206;48.782;9.252;2023-04-12T09:54:28;2.13;;;1.80;;
438;SDS011;206;48.782;9.252;2023-04-12T09:56:55;3.10;;;2.40;;
438;SDS011;206;48.782;9.252;2023-04-12T09:59:21;3.90;;;2.47;;
438;SDS011;206;48.782;9.252;2023-04-12T10:01:51;3.30;;;1.70;;
438;SDS011;206;48.782;9.252;2023-04-12T10:04:17;7.17;;;2.67;;
438;SDS011;206;48.782;9.252;2023-04-12T10:06:44;2.47;;;2.23;;
438;SDS011;206;48.782;9.252;2023-04-12T10:09:10;6.17;;;2.20;;
438;SDS011;206;48.782;9.252;2023-04-12T10:11:37;3.10;;;1.97;;
438;SDS011;206;48.782;9.252;2023-04-12T10:14:05;5.30;;;1.90;;
438;SDS011;206;48.782;9.252;2023-04-12T10:16:32;6.23;;;3.20;;
438;SDS011;206;48.782;9.252;2023-04-12T10:19:00;2.07;;;1.77;;
438;SDS011;206;48.782;9.252;2023-04-12T10:21:27;5.95;;;2.20;;
438;SDS011;206;48.782;9.252;2023-04-12T10:23:53;3.87;;;2.07;;
438;SDS011;206;48.782;9.252;2023-04-12T10:26:19;3.97;;;2.20;;
438;SDS011;206;48.782;9.252;2023-04-12T10:28:45;4.13;;;1.50;;
438;SDS011;206;48.782;9.252;2023-04-12T10:32:20;5.33;;;1.40;;
438;SDS011;206;48.782;9.252;2023-04-12T10:34:51;2.80;;;1.63;;
438;SDS011;206;48.782;9.252;2023-04-12T10:37:20;4.67;;;1.87;;
438;SDS011;206;48.782;9.252;2023-04-12T10:39:53;2.83;;;1.87;;
438;SDS011;206;48.782;9.252;2023-04-12T10:42:25;2.97;;;1.50;;
438;SDS011;206;48.782;9.252;2023-04-12T10:44:53;2.20;;;1.60;;
438;SDS011;206;48.782;9.252;2023-04-12T10:55:34;4.50;;;1.30;;
438;SDS011;206;48.782;9.252;2023-04-12T10:57:59;3.07;;;2.43;;
438;SDS011;206;48.782;9.252;2023-04-12T11:00:25;2.37;;;1.30;;
438;SDS011;206;48.782;9.252;2023-04-12T11:03:20;5.63;;;2.07;;
438;SDS011;206;48.782;9.252;2023-04-12T11:08:28;1.63;;;1.37;;
438;SDS011;206;48.782;9.252;2023-04-12T11:11:01;2.00;;;1.13;;
438;SDS011;206;48.782;9.252;2023-04-12T11:13:28;1.77;;;1.30;;
438;SDS011;206;48.782;9.252;2023-04-12T11:16:01;3.13;;;2.00;;
438;SDS011;206;48.782;9.252;2023-04-12T11:18:27;3.10;;;1.75;;
438;SDS011;206;48.782;9.252;2023-04-12T11:20:53;3.63;;;1.67;;
438;SDS011;206;48.782;9.252;2023-04-12T11:23:20;2.03;;;1.70;;
438;SDS011;206;48.782;9.252;2023-04-12T11:25:50;2.27;;;1.20;;
438;SDS011;206;48.782;9.252;2023-04-12T11:28:17;1.40;;;1.20;;
438;SDS011;206;48.782;9.252;2023-04-12T11:31:02;1.90;;;1.80;;
438;SDS011;206;48.782;9.252;2023-04-12T11:33:34;1.80;;;1.23;;
438;SDS011;206;48.782;9.252;2023-04-12T11:36:10;2.70;;;1.30;;
438;SDS011;206;48.782;9.252;2023-04-12T11:38:37;1.93;;;1.33;;
438;SDS011;206;48.782;9.252;2023-04-12T11:41:04;9.50;;;1.90;;
438;SDS011;206;48.782;9.252;2023-04-12T11:43:32;2.23;;;1.20;;
438;SDS011;206;48.782;9.252;2023-04-12T11:45:59;1.43;;;1.20;;
438;SDS011;206;48.782;9.252;2023-04-12T11:48:26;1.00;;;0.80;;
438;SDS011;206;48.782;9.252;2023-04-12T11:50:52;2.87;;;1.20;;
438;SDS011;206;48.782;9.252;2023-04-12T11:53:18;3.47;;;2.57;;
438;SDS011;206;48.782;9.252;2023-04-12T11:55:48;2.47;;;1.80;;
438;SDS011;206;48.782;9.252;2023-04-12T11:58:15;2.60;;;1.30;;
438;SDS011;206;48.782;9.252;2023-04-12T12:00:42;1.70;;;0.93;;
438;SDS011;206;48.782;9.252;2023-04-12T12:03:09;2.00;;;1.10;;
438;SDS011;206;48.782;9.252;2023-04-12T12:05:39;2.77;;;1.00;;
438;SDS011;206;48.782;9.252;2023-04-12T12:08:08;3.63;;;1.47;;
438;SDS011;206;48.782;9.252;2023-04-12T12:10:35;3.20;;;1.60;;
438;SDS011;206;48.782;9.252;2023-04-12T12:13:02;2.00;;;1.20;;
438;SDS011;206;48.782;9.252;2023-04-12T12:15:33;1.63;;;1.23;;
438;SDS011;206;48.782;9.252;2023-04-12T12:17:58;2.43;;;1.30;;
438;SDS011;206;48.782;9.252;2023-04-12T12:20:26;1.43;;;0.87;;
438;SDS011;206;48.782;9.252;2023-04-12T12:22:51;3.37;;;1.10;;
438;SDS011;206;48.782;9.252;2023-04-12T12:25:17;1.13;;;1.00;;
438;SDS011;206;48.782;9.252;2023-04-12T12:27:44;2.93;;;0.83;;
438;SDS011;206;48.782;9.252;2023-04-12T12:30:15;2.53;;;1.10;;
438;SDS011;206;48.782;9.252;2023-04-12T12:32:41;1.20;;;1.10;;
438;SDS011;206;48.782;9.252;2023-04-12T12:35:11;3.30;;;0.93;;
438;SDS011;206;48.782;9.252;2023-04-12T12:37:46;1.53;;;1.13;;
438;SDS011;206;48.782;9.252;2023-04-12T12:40:13;1.40;;;0.80;;
438;SDS011;206;48.782;9.252;2023-04-12T12:42:58;3.57;;;1.50;;
438;SDS011;206;48.782;9.252;2023-04-12T12:45:25;8.30;;;1.40;;
438;SDS011;206;48.782;9.252;2023-04-12T12:47:58;2.87;;;1.33;;
438;SDS011;206;48.782;9.252;2023-04-12T12:50:29;2.17;;;1.00;;
438;SDS011;206;48.782;9.252;2023-04-12T12:52:57;1.80;;;1.30;;
438;SDS011;206;48.782;9.252;2023-04-12T12:55:25;1.10;;;0.87;;
438;SDS011;206;48.782;9.252;2023-04-12T12:57:52;1.00;;;0.80;;
438;SDS011;206;48.782;9.252;2023-04-12T13:00:18;2.33;;;1.00;;
438;SDS011;206;48.782;9.252;2023-04-12T13:02:46;2.53;;;0.90;;
438;SDS011;206;48.782;9.252;2023-04-12T13:05:12;1.47;;;1.00;;
438;SDS011;206;48.782;9.252;2023-04-12T13:07:38;5.13;;;1.23;;
438;SDS011;206;48.782;9.252;2023-04-12T13:10:04;3.00;;;1.10;;
438;SDS011;206;48.782;9.252;2023-04-12T13:12:30;3.60;;;1.17;;
438;SDS011;206;48.782;9.252;2023-04-12T13:14:56;1.23;;;1.00;;
438;SDS011;206;48.782;9.252;2023-04-12T13:17:24;1.40;;;0.80;;
438;SDS011;206;48.782;9.252;2023-04-12T13:19:50;2.80;;;1.77;;
438;SDS011;206;48.782;9.252;2023-04-12T13:22:16;2.40;;;1.60;;
438;SDS011;206;48.782;9.252;2023-04-12T13:24:42;1.53;;;0.97;;
438;SDS011;206;48.782;9.252;2023-04-12T13:27:08;4.30;;;1.00;;
438;SDS011;206;48.782;9.252;2023-04-12T13:29:34;1.30;;;1.00;;
438;SDS011;206;48.782;9.252;2023-04-12T13:32:01;1.83;;;0.90;;
438;SDS011;206;48.782;9.252;2023-04-12T13:34:26;1.13;;;1.10;;
438;SDS011;206;48.782;9.252;2023-04-12T13:36:52;4.80;;;1.10;;
438;SDS011;206;48.782;9.252;2023-04-12T13:39:18;2.47;;;1.03;;
438;SDS011;206;48.782;9.252;2023-04-12T13:41:43;1.20;;;0.80;;
438;SDS011;206;48.782;9.252;2023-04-12T13:44:09;2.47;;;1.07;;
438;SDS011;206;48.782;9.252;2023-04-12T13:46:35;1.53;;;0.90;;
438;SDS011;206;48.782;9.252;2023-04-12T13:49:00;3.63;;;1.10;;
438;SDS011;206;48.782;9.252;2023-04-12T13:51:26;2.70;;;0.90;;
438;SDS011;206;48.782;9.252;2023-04-12T13:53:53;1.70;;;0.93;;
438;SDS011;206;48.782;9.252;2023-04-12T13:56:19;1.67;;;0.97;;
438;SDS011;206;48.782;9.252;2023-04-12T13:58:44;3.93;;;1.00;;
438;SDS011;206;48.782;9.252;2023-04-12T14:01:10;2.00;;;1.03;;
438;SDS011;206;48.782;9.252;2023-04-12T14:03:37;2.17;;;0.97;;
438;SDS011;206;48.782;9.252;2023-04-12T14:06:03;3.90;;;1.00;;
438;SDS011;206;48.782;9.252;2023-04-12T14:08:29;3.77;;;0.73;;
438;SDS011;206;48.782;9.252;2023-04-12T14:10:55;1.37;;;1.00;;
438;SDS011;206;48.782;9.252;2023-04-12T14:13:21;1.23;;;1.20;;
438;SDS011;206;48.782;9.252;2023-04-12T14:15:47;0.80;;;0.60;;
438;SDS011;206;48.782;9.252;2023-04-12T14:18:14;1.63;;;0.90;;
438;SDS011;206;48.782;9.252;2023-04-12T14:20:39;6.43;;;0.70;;
438;SDS011;206;48.782;9.252;2023-04-12T14:23:05;2.10;;;1.00;;
438;SDS011;206;48.782;9.252;2023-04-12T14:25:30;1.20;;;0.80;;
438;SDS011;206;48.782;9.252;2023-04-12T14:27:56;2.60;;;0.97;;
438;SDS011;206;48.782;9.252;2023-04-12T14:30:22;0.70;;;0.50;;
438;SDS011;206;48.782;9.252;2023-04-12T14:32:47;0.90;;;0.70;;
438;SDS011;206;48.782;9.252;2023-04-12T14:35:13;1.10;;;0.63;;
438;SDS011;206;48.782;9.252;2023-04-12T14:37:39;1.57;;;0.80;;
438;SDS011;206;48.782;9.252;2023-04-12T14:40:05;1.50;;;0.93;;
438;SDS011;206;48.782;9.252;2023-04-12T14:42:32;2.93;;;1.20;;
438;SDS011;206;48.782;9.252;2023-04-12T14:44:59;1.73;;;0.93;;
438;SDS011;206;48.782;9.252;2023-04-12T14:47:25;3.20;;;0.70;;
438;SDS011;206;48.782;9.252;2023-04-12T14:49:50;0.80;;;0.80;;
438;SDS011;206;48.782;9.252;2023-04-12T14:52:16;1.43;;;0.93;;
438;SDS011;206;48.782;9.252;2023-04-12T14:54:42;4.43;;;0.97;;
438;SDS011;206;48.782;9.252;2023-04-12T14:57:08;4.27;;;1.70;;
438;SDS011;206;48.782;9.252;2023-04-12T14:59:33;0.80;;;0.60;;
438;SDS011;206;48.782;9.252;2023-04-12T15:01:59;1.30;;;0.60;;
438;SDS011;206;48.782;9.252;2023-04-12T15:04:25;1.30;;;0.90;;
438;SDS011;206;48.782;9.252;2023-04-12T15:06:50;0.70;;;0.60;;
438;SDS011;206;48.782;9.252;2023-04-12T15:09:16;1.23;;;0.67;;
438;SDS011;206;48.782;9.252;2023-04-12T15:11:42;1.90;;;1.10;;
438;SDS011;206;48.782;9.252;2023-04-12T15:14:11;2.27;;;1.57;;
438;SDS011;206;48.782;9.252;2023-04-12T15:16:44;0.80;;;0.70;;
438;SDS011;206;48.782;9.252;2023-04-12T15:19:10;2.07;;;0.70;;
438;SDS011;206;48.782;9.252;2023-04-12T15:21:36;3.03;;;1.03;;
438;SDS011;206;48.782;9.252;2023-04-12T15:24:02;4.80;;;1.27;;
438;SDS011;206;48.782;9.252;2023-04-12T15:26:28;1.10;;;0.80;;
438;SDS011;206;48.782;9.252;2023-04-12T15:28:54;8.23;;;4.23;;
438;SDS011;206;48.782;9.252;2023-04-12T15:31:20;2.10;;;1.13;;
438;SDS011;206;48.782;9.252;2023-04-12T15:33:46;5.43;;;1.63;;
438;SDS011;206;48.782;9.252;2023-04-12T15:36:14;8.73;;;1.97;;
438;SDS011;206;48.782;9.252;2023-04-12T15:38:40;4.20;;;1.43;;
438;SDS011;206;48.782;9.252;2023-04-12T15:41:07;4.73;;;1.60;;
438;SDS011;206;48.782;9.252;2023-04-12T15:43:33;1.90;;;1.30;;
438;SDS011;206;48.782;9.252;2023-04-12T15:45:58;6.50;;;1.90;;
438;SDS011;206;48.782;9.252;2023-04-12T15:48:25;2.03;;;1.20;;
438;SDS011;206;48.782;9.252;2023-04-12T15:50:51;2.10;;;1.00;;
438;SDS011;206;48.782;9.252;2023-04-12T15:53:21;1.33;;;0.70;;
438;SDS011;206;48.782;9.252;2023-04-12T15:55:48;1.67;;;1.40;;
438;SDS011;206;48.782;9.252;2023-04-12T15:58:18;3.57;;;1.50;;
438;SDS011;206;48.782;9.252;2023-04-12T16:00:48;3.63;;;1.00;;
438;SDS011;206;48.782;9.252;2023-04-12T16:03:14;2.70;;;1.73;;
438;SDS011;206;48.782;9.252;2023-04-12T16:05:43;1.20;;;0.70;;
438;SDS011;206;48.782;9.252;2023-04-12T16:08:10;2.20;;;0.80;;